Time;durP1;ratioP1;P1;durP2;ratioP2;P2;SDS_P1;SDS_P2;PMS_P1;PMS_P2;Temp;Humidity;BMP_temperature;BMP_pressure;BME280_temperature;BME280_humidity;BME280_pressure;Samples;Min_cycle;Max_cycle;Signal;HPM_P1;HPM_P2
2021/12/27 00:01:59;;;;;;;;;;;;;;;16.45;41.11;100248.91;4983655;28;20283;-45
2021/12/27 00:04:24;;;;;;;;;;;;;;;16.44;41.18;100249.91;4983206;28;19972;-49
2021/12/27 00:06:49;;;;;;;;;;;;;;;16.43;41.02;100251.72;4983796;28;19918;-46
2021/12/27 00:09:14;;;;;;;;;;;;;;;16.42;41.21;100247.38;4983851;28;19918;-48
2021/12/27 00:11:40;;;;;;;;;;;;;;;16.42;41.16;100249.22;4983811;28;19978;-42
2021/12/27 00:14:05;;;;;;;;;;;;;;;16.42;41.12;100238.50;4983553;28;19918;-43
2021/12/27 00:16:30;;;;;;;;;;;;;;;16.41;41.13;100239.50;4983033;28;19930;-46
2021/12/27 00:18:55;;;;;;;;;;;;;;;16.40;41.15;100233.31;4983018;28;19918;-45
2021/12/27 00:21:21;;;;;;;;;;;;;;;16.40;41.06;100227.09;4983595;28;19972;-46
2021/12/27 00:23:46;;;;;;;;;;;;;;;16.39;41.10;100228.09;4983495;28;19926;-44
2021/12/27 00:26:11;;;;;;;;;;;;;;;16.39;41.22;100231.59;4983407;28;19922;-46
2021/12/27 00:28:36;;;;;;;;;;;;;;;16.38;41.31;100223.72;4983300;28;19926;-44
2021/12/27 00:31:02;;;;;;;;;;;;;;;16.37;41.04;100222.91;4982320;28;19926;-46
2021/12/27 00:33:27;;;;;;;;;;;;;;;16.35;41.10;100227.59;4982730;28;19925;-43
2021/12/27 00:35:52;;;;;;;;;;;;;;;16.35;41.22;100221.38;4983455;28;19910;-45
2021/12/27 00:38:18;;;;;;;;;;;;;;;16.35;41.19;100221.38;4983619;28;20334;-46
2021/12/27 00:40:43;;;;;;;;;;;;;;;16.34;41.22;100223.22;4983476;28;20229;-45
2021/12/27 00:43:08;;;;;;;;;;;;;;;16.34;41.13;100214.34;4983513;28;19919;-47
2021/12/27 00:45:33;;;;;;;;;;;;;;;16.33;41.10;100208.16;4983259;28;19922;-43
2021/12/27 00:47:59;;;;;;;;;;;;;;;16.33;41.14;100210.00;4982840;28;19918;-45
2021/12/27 00:50:24;;;;;;;;;;;;;;;16.33;41.23;100207.31;4983443;28;19918;-45
2021/12/27 00:52:50;;;;;;;;;;;;;;;16.32;41.19;100209.16;4983594;28;20454;-46
2021/12/27 00:55:15;;;;;;;;;;;;;;;16.32;41.24;100208.31;4983098;28;19918;-44
2021/12/27 00:57:41;;;;;;;;;;;;;;;16.31;41.15;100210.19;4983169;28;19925;-46
2021/12/27 01:00:08;;;;;;;;;;;;;;;16.30;41.05;100213.84;4983334;28;19997;-46
2021/12/27 01:02:33;;;;;;;;;;;;;;;16.29;41.12;100205.97;4982218;28;19977;-43
2021/12/27 01:04:58;;;;;;;;;;;;;;;16.29;41.12;100205.97;4982901;28;19922;-46
2021/12/27 01:07:23;;;;;;;;;;;;;;;16.28;41.15;100213.19;4983034;28;19922;-43
2021/12/27 01:10:06;;;;;;;;;;;;;;;16.28;41.10;100207.00;4983293;28;19940;-45
2021/12/27 01:15:34;;;;;;;;;;;;;;;16.27;41.13;100210.66;4989777;28;19918;-43
2021/12/27 01:17:57;;;;;;;;;;;;;;;16.26;41.20;100209.81;4975454;28;19930;-47
2021/12/27 01:20:23;;;;;;;;;;;;;;;16.25;41.28;100211.66;4983111;28;19918;-45
2021/12/27 01:22:48;;;;;;;;;;;;;;;16.26;41.21;100212.50;4982798;28;19922;-46
2021/12/27 01:25:14;;;;;;;;;;;;;;;16.24;41.17;100207.31;4982133;28;19929;-45
2021/12/27 01:27:39;;;;;;;;;;;;;;;16.24;41.24;100199.25;4982478;28;19961;-45
2021/12/27 01:30:06;;;;;;;;;;;;;;;16.24;41.15;100206.47;4986607;28;19918;-43
2021/12/27 01:32:36;;;;;;;;;;;;;;;16.23;41.12;100200.28;4985497;28;19922;-46
2021/12/27 01:35:01;;;;;;;;;;;;;;;16.23;41.16;100199.44;4984989;28;20586;-43
2021/12/27 01:37:26;;;;;;;;;;;;;;;16.22;41.09;100198.59;4984381;28;19957;-43
2021/12/27 01:39:52;;;;;;;;;;;;;;;16.21;41.19;100191.56;4985197;28;19918;-43
2021/12/27 01:42:17;;;;;;;;;;;;;;;16.21;41.16;100194.22;4984954;28;19921;-45
2021/12/27 01:44:42;;;;;;;;;;;;;;;16.20;41.13;100189.03;4986337;28;19991;-44
2021/12/27 01:47:09;;;;;;;;;;;;;;;16.19;41.17;100188.22;4985863;28;19985;-44
2021/12/27 01:49:34;;;;;;;;;;;;;;;16.18;41.13;100186.53;4985561;28;19918;-43
2021/12/27 01:51:59;;;;;;;;;;;;;;;16.18;41.31;100183.88;4986457;28;19925;-46
2021/12/27 01:54:24;;;;;;;;;;;;;;;16.17;41.18;100179.47;4986122;28;19918;-44
2021/12/27 01:56:50;;;;;;;;;;;;;;;16.17;41.21;100171.44;4985833;28;19922;-46
2021/12/27 01:59:15;;;;;;;;;;;;;;;16.16;41.26;100171.63;4984431;28;19918;-45
2021/12/27 02:01:41;;;;;;;;;;;;;;;16.16;41.30;100171.63;4986136;28;19985;-43
2021/12/27 02:04:06;;;;;;;;;;;;;;;16.15;41.28;100168.09;4984943;28;19922;-43
2021/12/27 02:06:31;;;;;;;;;;;;;;;16.15;41.34;100167.25;4985837;28;19965;-45
2021/12/27 02:08:56;;;;;;;;;;;;;;;16.13;41.23;100167.41;4985814;28;19922;-44
2021/12/27 02:11:21;;;;;;;;;;;;;;;16.13;41.33;100166.56;4985681;28;19925;-47
2021/12/27 02:13:47;;;;;;;;;;;;;;;16.12;41.31;100168.44;4985709;28;20020;-47
2021/12/27 02:16:13;;;;;;;;;;;;;;;16.12;41.08;100176.47;4985642;28;19918;-43
2021/12/27 02:18:39;;;;;;;;;;;;;;;16.12;41.20;100175.63;4984448;28;19918;-43
2021/12/27 02:21:04;;;;;;;;;;;;;;;16.11;41.38;100171.28;4985992;28;20058;-44
2021/12/27 02:23:30;;;;;;;;;;;;;;;16.09;41.28;100166.06;4985272;28;19944;-42
2021/12/27 02:25:55;;;;;;;;;;;;;;;16.10;41.41;100161.53;4985442;28;19941;-45
2021/12/27 02:28:21;;;;;;;;;;;;;;;16.08;41.30;100161.72;4985534;28;19985;-44
2021/12/27 02:30:47;;;;;;;;;;;;;;;16.07;41.30;100164.59;4985606;28;19957;-42
2021/12/27 02:33:12;;;;;;;;;;;;;;;16.06;41.40;100155.72;5016172;28;19918;-48
2021/12/27 02:35:42;;;;;;;;;;;;;;;16.06;41.38;100149.50;4984999;28;19926;-44
2021/12/27 02:38:08;;;;;;;;;;;;;;;16.05;41.38;100142.44;4985317;28;19922;-44
2021/12/27 02:40:34;;;;;;;;;;;;;;;16.04;41.33;100140.78;4984953;28;20511;-45
2021/12/27 02:42:59;;;;;;;;;;;;;;;16.04;41.28;100140.78;4984953;28;19918;-45
2021/12/27 02:45:25;;;;;;;;;;;;;;;16.04;41.39;100140.78;4985041;28;19922;-44
2021/12/27 02:47:50;;;;;;;;;;;;;;;16.03;41.37;100139.13;4984330;28;20442;-44
2021/12/27 02:50:16;;;;;;;;;;;;;;;16.02;41.34;100138.28;4985140;28;19941;-44
2021/12/27 02:52:41;;;;;;;;;;;;;;;16.03;41.37;100128.38;4985245;28;19925;-46
2021/12/27 02:55:06;;;;;;;;;;;;;;;16.02;41.40;100127.56;4984666;28;19922;-44
2021/12/27 02:57:31;;;;;;;;;;;;;;;16.02;41.39;100135.59;4984844;28;20002;-46
2021/12/27 02:59:57;;;;;;;;;;;;;;;16.01;41.35;100128.53;4984883;28;19918;-47
2021/12/27 03:02:22;;;;;;;;;;;;;;;16.00;41.38;100119.66;4984224;28;20016;-46
2021/12/27 03:04:47;;;;;;;;;;;;;;;16.00;41.35;100122.34;4983982;28;20427;-45
2021/12/27 03:07:12;;;;;;;;;;;;;;;15.99;41.39;100125.19;4984731;28;19918;-44
2021/12/27 03:09:38;;;;;;;;;;;;;;;15.97;41.45;100111.97;4984663;28;20003;-43
2021/12/27 03:12:03;;;;;;;;;;;;;;;15.98;41.51;100123.53;4985010;28;19922;-42
2021/12/27 03:14:28;;;;;;;;;;;;;;;15.97;41.48;100113.78;4984172;28;19925;-43
2021/12/27 03:16:54;;;;;;;;;;;;;;;15.96;41.38;100114.81;4984331;28;19922;-42
2021/12/27 03:19:19;;;;;;;;;;;;;;;15.96;41.51;100101.41;4983856;28;19994;-44
2021/12/27 03:21:44;;;;;;;;;;;;;;;15.95;41.50;100108.59;4984708;28;19969;-43
2021/12/27 03:24:09;;;;;;;;;;;;;;;15.94;41.36;100112.31;4984294;28;19930;-44
2021/12/27 03:26:34;;;;;;;;;;;;;;;15.93;41.46;100118.69;4983968;28;19949;-45
2021/12/27 03:28:59;;;;;;;;;;;;;;;15.94;41.39;100128.38;4984333;28;20391;-44
2021/12/27 03:31:25;;;;;;;;;;;;;;;15.94;41.52;100127.56;4984450;28;19918;-45
2021/12/27 03:33:50;;;;;;;;;;;;;;;15.92;41.48;100126.88;4978699;28;20081;-44
2021/12/27 03:36:15;;;;;;;;;;;;;;;15.92;41.46;100118.81;4984482;28;19918;-45
2021/12/27 03:38:41;;;;;;;;;;;;;;;15.91;41.47;100117.16;5015681;28;20021;-45
2021/12/27 03:41:08;;;;;;;;;;;;;;;15.91;41.40;100117.16;4984288;28;19944;-46
2021/12/27 03:43:33;;;;;;;;;;;;;;;15.90;41.43;100110.97;4983905;28;20327;-43
2021/12/27 03:45:59;;;;;;;;;;;;;;;15.90;41.49;100110.13;4984198;28;20314;-46
2021/12/27 03:48:24;;;;;;;;;;;;;;;15.89;41.56;100105.78;4983535;28;19985;-45
2021/12/27 03:50:49;;;;;;;;;;;;;;;15.88;41.46;100099.56;4983494;28;19917;-47
2021/12/27 03:53:14;;;;;;;;;;;;;;;15.87;41.50;100100.56;4984234;28;19927;-44
2021/12/27 03:55:39;;;;;;;;;;;;;;;15.87;41.61;100099.72;4983524;28;19926;-46
2021/12/27 03:58:08;;;;;;;;;;;;;;;15.87;41.57;100107.78;4983751;28;19926;-46
2021/12/27 04:00:48;;;;;;;;;;;;;;;15.86;41.50;100106.94;4984051;28;19925;-47
2021/12/27 04:03:14;;;;;;;;;;;;;;;15.85;41.48;100099.91;4975970;28;19918;-46
2021/12/27 04:05:40;;;;;;;;;;;;;;;15.84;41.58;100092.84;5014864;28;19957;-45
2021/12/27 04:08:09;;;;;;;;;;;;;;;15.83;41.49;100093.88;4983978;28;19918;-46
2021/12/27 04:10:34;;;;;;;;;;;;;;;15.82;41.64;100084.16;4983974;28;19963;-45
2021/12/27 04:12:59;;;;;;;;;;;;;;;15.82;41.53;100086.84;4983594;28;19918;-44
2021/12/27 04:15:25;;;;;;;;;;;;;;;15.82;41.71;100083.31;4983700;28;19918;-44
2021/12/27 04:17:51;;;;;;;;;;;;;;;15.83;41.58;100083.16;4982961;28;19950;-48
2021/12/27 04:20:16;;;;;;;;;;;;;;;15.83;41.51;100074.28;4983649;28;19918;-42
2021/12/27 04:22:41;;;;;;;;;;;;;;;15.82;41.52;100072.59;4983463;28;20017;-44
2021/12/27 04:25:07;;;;;;;;;;;;;;;15.82;41.44;100064.56;4982918;28;19922;-44
2021/12/27 04:27:32;;;;;;;;;;;;;;;15.81;41.39;100066.41;4983580;28;19918;-44
2021/12/27 04:29:57;;;;;;;;;;;;;;;15.82;41.52;100061.88;4983714;28;19922;-47
2021/12/27 04:32:22;;;;;;;;;;;;;;;15.81;41.52;100060.22;4983211;28;20391;-49
2021/12/27 04:34:47;;;;;;;;;;;;;;;15.82;41.48;100061.88;4981444;28;19929;-45
2021/12/27 04:37:13;;;;;;;;;;;;;;;15.82;41.45;100059.19;4983446;28;19918;-44
2021/12/27 04:39:38;;;;;;;;;;;;;;;15.83;41.59;100058.19;4983521;28;19918;-45
2021/12/27 04:42:04;;;;;;;;;;;;;;;15.82;41.47;100054.66;4983554;28;19918;-44
2021/12/27 04:44:29;;;;;;;;;;;;;;;15.84;41.54;100062.53;4983151;28;20024;-44
2021/12/27 04:46:54;;;;;;;;;;;;;;;15.84;41.45;100058.00;4983148;28;19918;-44
2021/12/27 04:49:20;;;;;;;;;;;;;;;15.84;41.43;100060.69;4982862;28;19961;-45
2021/12/27 04:51:45;;;;;;;;;;;;;;;15.83;41.38;100060.88;4983426;28;19925;-46
2021/12/27 04:54:10;;;;;;;;;;;;;;;15.82;41.47;100057.34;4983478;28;20028;-46
2021/12/27 04:56:35;;;;;;;;;;;;;;;15.83;41.53;100061.69;4982885;28;19922;-47
2021/12/27 04:59:00;;;;;;;;;;;;;;;15.83;41.60;100053.66;4983197;28;19918;-46
2021/12/27 05:01:26;;;;;;;;;;;;;;;15.83;41.46;100056.34;4983542;28;19918;-48
2021/12/27 05:03:51;;;;;;;;;;;;;;;15.83;41.60;100045.63;5016868;28;19922;-46
2021/12/27 05:06:17;;;;;;;;;;;;;;;15.83;41.43;100056.34;4987022;28;19918;-46
2021/12/27 05:08:42;;;;;;;;;;;;;;;15.83;41.46;100056.34;4987076;28;19922;-49
2021/12/27 05:11:08;;;;;;;;;;;;;;;15.84;41.43;100055.31;4986829;28;19918;-47
2021/12/27 05:13:33;;;;;;;;;;;;;;;15.84;41.52;100043.78;4986552;28;19931;-44
2021/12/27 05:15:59;;;;;;;;;;;;;;;15.85;41.55;100042.78;4987018;28;19957;-46
2021/12/27 05:18:24;;;;;;;;;;;;;;;15.86;41.49;100036.41;4985916;28;19922;-44
2021/12/27 05:20:50;;;;;;;;;;;;;;;15.85;41.56;100040.09;4986791;28;19922;-43
2021/12/27 05:23:15;;;;;;;;;;;;;;;15.85;41.43;100034.75;4986982;28;19918;-47
2021/12/27 05:25:40;;;;;;;;;;;;;;;15.85;41.52;100035.59;4986180;28;19922;-46
2021/12/27 05:28:05;;;;;;;;;;;;;;;15.86;41.50;100028.38;4986839;28;19918;-48
2021/12/27 05:30:30;;;;;;;;;;;;;;;15.86;41.39;100023.00;4986701;28;19928;-43
2021/12/27 05:32:56;;;;;;;;;;;;;;;15.86;41.47;100026.53;4985832;28;19918;-45
2021/12/27 05:35:21;;;;;;;;;;;;;;;15.86;41.47;100021.16;4986319;28;19940;-44
2021/12/27 05:37:46;;;;;;;;;;;;;;;15.86;41.52;100021.16;4986218;28;19918;-45
2021/12/27 05:40:15;;;;;;;;;;;;;;;15.87;41.47;100025.50;5017834;28;19919;-44
2021/12/27 05:42:41;;;;;;;;;;;;;;;15.86;41.47;100010.44;4986121;28;19918;-45
2021/12/27 05:45:06;;;;;;;;;;;;;;;15.88;41.48;100019.13;4986324;28;19938;-46
2021/12/27 05:47:31;;;;;;;;;;;;;;;15.88;41.47;100019.13;4985629;28;19918;-46
2021/12/27 05:49:57;;;;;;;;;;;;;;;15.87;41.55;100017.47;4985994;28;20339;-46
2021/12/27 05:52:22;;;;;;;;;;;;;;;15.88;41.49;100020.97;4986467;28;19918;-46
2021/12/27 05:54:47;;;;;;;;;;;;;;;15.88;41.50;100019.13;4985699;28;19925;-47
2021/12/27 05:57:12;;;;;;;;;;;;;;;15.88;41.51;100021.81;4986025;28;19919;-45
2021/12/27 05:59:37;;;;;;;;;;;;;;;15.89;41.44;100017.31;4985959;28;19918;-43
2021/12/27 06:02:02;;;;;;;;;;;;;;;15.88;41.58;100005.72;4985960;28;19981;-46
2021/12/27 06:04:28;;;;;;;;;;;;;;;15.90;41.54;100010.94;4985310;28;19926;-48
2021/12/27 06:06:53;;;;;;;;;;;;;;;15.89;41.71;100003.91;4985887;28;20036;-47
2021/12/27 06:09:18;;;;;;;;;;;;;;;15.89;41.63;99998.56;4986042;28;19929;-46
2021/12/27 06:11:43;;;;;;;;;;;;;;;15.89;41.64;99995.88;4985666;28;19918;-42
2021/12/27 06:14:09;;;;;;;;;;;;;;;15.90;41.64;99994.84;4984318;28;19950;-43
2021/12/27 06:16:34;;;;;;;;;;;;;;;15.89;41.55;99991.34;4985820;28;19922;-46
2021/12/27 06:18:59;;;;;;;;;;;;;;;15.89;41.50;99996.72;4984263;28;19919;-45
2021/12/27 06:21:24;;;;;;;;;;;;;;;15.91;41.43;99986.63;4985254;28;20306;-44
2021/12/27 06:23:49;;;;;;;;;;;;;;;15.92;41.55;99990.16;4984895;28;20006;-42
2021/12/27 06:26:15;;;;;;;;;;;;;;;15.93;41.64;99987.31;4984736;28;19926;-42
2021/12/27 06:28:40;;;;;;;;;;;;;;;15.94;41.71;99980.94;4984845;28;19918;-42
2021/12/27 06:31:05;;;;;;;;;;;;;;;15.96;41.64;99986.13;4985350;28;19918;-46
2021/12/27 06:33:30;;;;;;;;;;;;;;;15.97;41.76;99977.91;4984805;28;19933;-41
2021/12/27 06:35:56;;;;;;;;;;;;;;;15.98;41.70;99971.53;5016609;28;19918;-45
2021/12/27 06:38:21;;;;;;;;;;;;;;;16.01;41.81;99970.34;4984870;28;19929;-43
2021/12/27 06:40:47;;;;;;;;;;;;;;;16.03;41.76;99976.38;4984564;28;19957;-46
2021/12/27 06:43:12;;;;;;;;;;;;;;;16.05;41.87;99970.84;4984482;28;19985;-41
2021/12/27 06:45:38;;;;;;;;;;;;;;;16.06;41.83;99976.06;4980699;28;19922;-47
2021/12/27 06:48:03;;;;;;;;;;;;;;;16.06;41.96;99976.06;4984217;28;19918;-45
2021/12/27 06:50:28;;;;;;;;;;;;;;;16.08;41.98;99978.56;4984756;28;19926;-43
2021/12/27 06:52:53;;;;;;;;;;;;;;;16.10;41.99;99981.88;4984409;28;19922;-44
2021/12/27 06:55:19;;;;;;;;;;;;;;;16.10;42.00;99988.09;4984481;28;19918;-45
2021/12/27 06:57:44;;;;;;;;;;;;;;;16.12;42.08;99988.75;4983064;28;19985;-45
2021/12/27 07:00:11;;;;;;;;;;;;;;;16.13;42.13;99987.75;4984143;28;19964;-42
2021/12/27 07:02:36;;;;;;;;;;;;;;;16.15;42.12;99999.16;4984260;28;19921;-45
2021/12/27 07:05:01;;;;;;;;;;;;;;;16.16;42.10;99999.97;4984268;28;19922;-42
2021/12/27 07:07:26;;;;;;;;;;;;;;;16.17;42.06;99994.44;4984555;28;20042;-47
2021/12/27 07:09:51;;;;;;;;;;;;;;;16.18;42.13;99997.94;4984023;28;20395;-47
2021/12/27 07:12:17;;;;;;;;;;;;;;;16.19;42.11;99999.63;4984254;28;19914;-46
2021/12/27 07:14:42;;;;;;;;;;;;;;;16.19;42.13;100003.16;4984092;28;20001;-46
2021/12/27 07:17:07;;;;;;;;;;;;;;;16.20;42.27;99994.09;4985748;28;20508;-44
2021/12/27 07:19:32;;;;;;;;;;;;;;;16.22;42.26;100001.94;4983922;28;19942;-43
2021/12/27 07:21:58;;;;;;;;;;;;;;;16.22;42.28;100000.09;4984422;28;19929;-47
2021/12/27 07:24:23;;;;;;;;;;;;;;;16.23;42.31;99987.56;4988208;28;19918;-46
2021/12/27 07:26:48;;;;;;;;;;;;;;;16.24;42.32;99998.09;4987530;28;19918;-44
2021/12/27 07:29:13;;;;;;;;;;;;;;;16.25;42.24;99993.56;4987082;28;19914;-48
2021/12/27 07:31:38;;;;;;;;;;;;;;;16.27;42.30;99988.88;4987311;28;19918;-47
2021/12/27 07:34:04;;;;;;;;;;;;;;;16.31;42.34;99987.53;4983476;28;20371;-46
2021/12/27 07:36:29;;;;;;;;;;;;;;;16.36;42.29;99985.16;4984585;28;20755;-45
2021/12/27 07:38:54;;;;;;;;;;;;;;;16.42;42.34;99983.59;4986736;28;19922;-44
2021/12/27 07:41:20;;;;;;;;;;;;;;;16.46;42.15;99987.63;4989394;28;19926;-47
2021/12/27 07:43:45;;;;;;;;;;;;;;;16.50;42.21;99988.94;4986451;28;19918;-43
2021/12/27 07:46:10;;;;;;;;;;;;;;;16.53;42.18;99991.28;4988614;28;19914;-44
2021/12/27 07:48:35;;;;;;;;;;;;;;;16.57;41.99;99991.78;4989491;28;19929;-46
2021/12/27 07:51:00;;;;;;;;;;;;;;;16.60;42.04;99991.41;4992018;28;19922;-46
2021/12/27 07:53:25;;;;;;;;;;;;;;;16.61;41.94;99998.44;4989131;28;19914;-42
2021/12/27 07:55:51;;;;;;;;;;;;;;;16.63;41.96;99999.94;4986268;28;19918;-43
2021/12/27 07:58:16;;;;;;;;;;;;;;;16.66;41.94;99988.03;4988797;28;19914;-46
2021/12/27 08:00:41;;;;;;;;;;;;;;;16.66;41.83;99988.03;4983960;28;19914;-47
2021/12/27 08:03:06;;;;;;;;;;;;;;;16.69;41.87;99983.16;4985628;28;19994;-45
2021/12/27 08:05:32;;;;;;;;;;;;;;;16.69;41.86;99985.84;4991864;28;19918;-48
2021/12/27 08:07:57;;;;;;;;;;;;;;;16.71;41.98;99986.47;4989621;28;19922;-47
2021/12/27 08:10:22;;;;;;;;;;;;;;;16.73;41.92;99983.63;4985601;28;19969;-47
2021/12/27 08:12:47;;;;;;;;;;;;;;;16.74;42.07;99990.72;4990745;28;19914;-45
2021/12/27 08:15:12;;;;;;;;;;;;;;;16.76;41.93;99980.63;4988166;28;19941;-46
2021/12/27 08:17:38;;;;;;;;;;;;;;;16.78;41.96;99985.78;4983626;28;20025;-46
2021/12/27 08:20:04;;;;;;;;;;;;;;;16.78;41.85;99981.28;4982462;28;19922;-44
2021/12/27 08:22:29;;;;;;;;;;;;;;;16.79;41.84;99982.94;4983950;28;20387;-47
2021/12/27 08:24:54;;;;;;;;;;;;;;;16.82;42.03;99989.78;4983157;28;19918;-45
2021/12/27 08:27:20;;;;;;;;;;;;;;;16.83;41.72;99984.28;4984646;28;19921;-43
2021/12/27 08:29:45;;;;;;;;;;;;;;;16.85;41.85;99984.06;4983525;28;20312;-44
2021/12/27 08:32:10;;;;;;;;;;;;;;;16.86;41.91;99983.88;4984854;28;19918;-47
2021/12/27 08:34:35;;;;;;;;;;;;;;;16.87;41.85;99979.38;4981973;28;19965;-45
2021/12/27 08:37:01;;;;;;;;;;;;;;;16.88;41.81;99970.31;4983453;28;19925;-45
2021/12/27 08:39:26;;;;;;;;;;;;;;;16.90;41.89;99970.94;4987299;28;19921;-45
2021/12/27 08:41:51;;;;;;;;;;;;;;;16.90;41.95;99968.25;4986643;28;19925;-45
2021/12/27 08:44:17;;;;;;;;;;;;;;;16.91;41.79;99957.38;4986412;28;19946;-44
2021/12/27 08:46:42;;;;;;;;;;;;;;;16.94;41.98;99962.34;4986875;28;19914;-46
2021/12/27 08:49:08;;;;;;;;;;;;;;;16.96;41.77;99965.72;4985522;28;19918;-46
2021/12/27 08:51:33;;;;;;;;;;;;;;;16.99;41.88;99962.69;4986335;28;19918;-47
2021/12/27 08:53:58;;;;;;;;;;;;;;;17.01;41.89;99964.34;4986000;28;19922;-46
2021/12/27 08:56:23;;;;;;;;;;;;;;;17.03;41.77;99962.31;4985671;28;19985;-48
2021/12/27 08:58:49;;;;;;;;;;;;;;;17.04;41.98;99962.16;4983250;28;19989;-47
2021/12/27 09:01:14;;;;;;;;;;;;;;;17.05;41.81;99961.13;4986706;28;19918;-44
2021/12/27 09:03:39;;;;;;;;;;;;;;;17.07;41.72;99961.75;4983644;28;19929;-44
2021/12/27 09:06:04;;;;;;;;;;;;;;;17.08;41.82;99965.31;4986417;28;19918;-44
2021/12/27 09:08:30;;;;;;;;;;;;;;;17.09;41.85;99969.66;4986476;28;19922;-49
2021/12/27 09:10:57;;;;;;;;;;;;;;;17.09;41.91;99959.75;4986721;28;19925;-46
2021/12/27 09:13:24;;;;;;;;;;;;;;;17.11;41.69;99960.38;4986753;28;19924;-46
2021/12/27 09:15:49;;;;;;;;;;;;;;;17.14;41.79;99965.41;4986433;28;19929;-49
2021/12/27 09:18:15;;;;;;;;;;;;;;;17.16;41.68;99960.72;4986091;28;19922;-48
2021/12/27 09:20:40;;;;;;;;;;;;;;;17.19;41.81;99954.13;4986348;28;19918;-44
2021/12/27 09:23:05;;;;;;;;;;;;;;;17.22;41.53;99951.91;4986788;28;19924;-47
2021/12/27 09:25:30;;;;;;;;;;;;;;;17.25;41.48;99958.78;4986069;28;20712;-44
2021/12/27 09:27:55;;;;;;;;;;;;;;;17.29;41.60;99956.56;4986203;28;19925;-46
2021/12/27 09:30:20;;;;;;;;;;;;;;;17.29;41.28;99957.41;4986668;28;19918;-45
2021/12/27 09:32:45;;;;;;;;;;;;;;;17.30;41.44;99956.41;4979548;28;20507;-49
2021/12/27 09:35:11;;;;;;;;;;;;;;;17.31;41.48;99960.75;4983752;28;19918;-44
2021/12/27 09:37:36;;;;;;;;;;;;;;;17.32;41.47;99948.97;4983742;28;19918;-44
2021/12/27 09:40:01;;;;;;;;;;;;;;;17.32;41.60;99956.19;4983958;28;19925;-46
2021/12/27 09:42:26;;;;;;;;;;;;;;;17.33;41.47;99947.97;4984289;28;19932;-44
2021/12/27 09:44:53;;;;;;;;;;;;;;;17.33;41.46;99947.97;5015118;28;19993;-48
2021/12/27 09:47:18;;;;;;;;;;;;;;;17.34;41.81;99952.31;4984138;28;19941;-48
2021/12/27 09:49:44;;;;;;;;;;;;;;;17.36;41.64;99946.75;4982014;28;20020;-42
2021/12/27 09:52:09;;;;;;;;;;;;;;;17.38;41.60;99950.13;4981659;28;20000;-44
2021/12/27 09:54:34;;;;;;;;;;;;;;;17.39;41.59;99955.28;4983730;28;19925;-47
2021/12/27 09:57:00;;;;;;;;;;;;;;;17.41;41.66;99957.78;4982812;28;19918;-47
2021/12/27 09:59:25;;;;;;;;;;;;;;;17.43;41.68;99953.09;4983108;28;19918;-44
2021/12/27 10:01:52;;;;;;;;;;;;;;;17.44;41.73;99952.91;4983974;28;19925;-45
2021/12/27 10:04:17;;;;;;;;;;;;;;;17.47;41.81;99951.72;4983334;28;19930;-50
2021/12/27 10:06:43;;;;;;;;;;;;;;;17.48;41.55;99953.38;4976686;28;19960;-45
2021/12/27 10:09:08;;;;;;;;;;;;;;;17.48;41.78;99950.69;4978548;28;19914;-49
2021/12/27 10:11:37;;;;;;;;;;;;;;;17.49;41.70;99947.81;4978185;28;19926;-47
2021/12/27 10:14:09;;;;;;;;;;;;;;;17.50;41.67;99951.34;4979638;28;19929;-47
2021/12/27 10:16:36;;;;;;;;;;;;;;;17.51;41.97;99953.00;4983685;28;19922;-47
2021/12/27 10:19:03;;;;;;;;;;;;;;;17.51;41.81;99947.63;4982253;28;19973;-43
2021/12/27 10:21:28;;;;;;;;;;;;;;;17.52;41.77;99935.03;4983823;28;19910;-43
2021/12/27 10:24:12;;;;;;;;;;;;;;;17.53;41.85;99929.47;4983687;28;19964;-47
2021/12/27 10:26:37;;;;;;;;;;;;;;;17.54;42.00;99932.97;4981670;28;19934;-44
2021/12/27 10:29:06;;;;;;;;;;;;;;;17.55;41.89;99932.00;4982323;28;19926;-44
2021/12/27 10:31:48;;;;;;;;;;;;;;;17.55;41.88;99924.75;4983552;28;19929;-46
2021/12/27 10:34:14;;;;;;;;;;;;;;;17.56;42.00;99917.53;4982635;28;19918;-40
2021/12/27 10:36:45;;;;;;;;;;;;;;;17.57;41.94;99908.44;4983600;28;19941;-45
2021/12/27 10:39:10;;;;;;;;;;;;;;;17.58;41.97;99902.88;4981388;28;19929;-53
2021/12/27 10:41:36;;;;;;;;;;;;;;;17.60;41.77;99902.69;4982451;28;19986;-44
2021/12/27 10:44:01;;;;;;;;;;;;;;;17.62;41.85;99906.03;4982944;28;20414;-44
2021/12/27 10:46:26;;;;;;;;;;;;;;;17.63;41.68;99911.22;4983266;28;19934;-41
2021/12/27 10:48:55;;;;;;;;;;;;;;;17.66;41.79;99912.69;4980780;28;19918;-40
2021/12/27 10:51:20;;;;;;;;;;;;;;;17.66;41.89;99913.53;4982006;28;20025;-40
2021/12/27 10:53:46;;;;;;;;;;;;;;;17.68;41.93;99918.75;4978868;28;20532;-42
2021/12/27 10:56:12;;;;;;;;;;;;;;;17.69;41.78;99905.09;4981918;28;19918;-43
2021/12/27 10:58:38;;;;;;;;;;;;;;;17.71;41.90;99916.53;4980835;28;19918;-46
2021/12/27 11:01:08;;;;;;;;;;;;;;;17.76;41.77;99909.78;4981822;28;19925;-49
2021/12/27 11:03:35;;;;;;;;;;;;;;;17.79;41.74;99902.16;4979689;28;19925;-46
2021/12/27 11:06:03;;;;;;;;;;;;;;;17.83;41.63;99906.16;4982470;28;19984;-42
2021/12/27 11:08:28;;;;;;;;;;;;;;;17.88;41.65;99900.22;4981911;28;19926;-40
2021/12/27 11:10:54;;;;;;;;;;;;;;;17.93;41.41;99895.13;4982659;28;19918;-44
2021/12/27 11:13:19;;;;;;;;;;;;;;;17.97;41.55;99889.19;4982272;28;20383;-48
2021/12/27 11:15:44;;;;;;;;;;;;;;;18.01;41.49;99891.47;4981358;28;19918;-47
2021/12/27 11:18:09;;;;;;;;;;;;;;;18.06;41.24;99881.03;4979958;28;20045;-45
2021/12/27 11:20:35;;;;;;;;;;;;;;;18.09;41.31;99873.38;4981500;28;19949;-46
2021/12/27 11:23:00;;;;;;;;;;;;;;;18.12;41.22;99864.13;4982772;28;19921;-46
2021/12/27 11:25:33;;;;;;;;;;;;;;;18.12;41.10;99867.63;4980899;28;19922;-45
2021/12/27 11:27:59;;;;;;;;;;;;;;;18.14;41.00;99865.59;4979235;28;19968;-44
2021/12/27 11:30:25;;;;;;;;;;;;;;;18.15;40.94;99858.38;4981996;28;19918;-47
2021/12/27 11:33:12;;;;;;;;;;;;;;;18.16;40.94;99842.03;4981587;28;19953;-43
2021/12/27 11:35:39;;;;;;;;;;;;;;;18.18;41.02;99836.44;4980654;28;19925;-46
2021/12/27 11:38:05;;;;;;;;;;;;;;;18.20;41.09;99837.09;4982087;28;19981;-45
2021/12/27 11:40:38;;;;;;;;;;;;;;;18.14;40.95;99819.03;4981078;28;19969;-44
2021/12/27 11:43:04;;;;;;;;;;;;;;;18.24;40.91;99831.16;4981220;28;19924;-47
2021/12/27 11:45:37;;;;;;;;;;;;;;;18.27;41.11;99837.19;4981844;28;19969;-47
2021/12/27 11:48:10;;;;;;;;;;;;;;;18.28;41.03;99828.91;4980794;28;19925;-45
2021/12/27 11:50:53;;;;;;;;;;;;;;;18.29;40.94;99818.97;4981085;28;19925;-44
2021/12/27 11:53:26;;;;;;;;;;;;;;;18.30;41.27;99816.09;4981329;28;19926;-46
2021/12/27 11:55:51;;;;;;;;;;;;;;;18.29;41.06;99827.88;4980983;28;19960;-43
2021/12/27 11:58:44;;;;;;;;;;;;;;;18.31;41.37;99828.53;4979299;28;19922;-44
2021/12/27 12:01:21;;;;;;;;;;;;;;;18.33;41.38;99837.25;4977611;28;19962;-44
2021/12/27 12:03:46;;;;;;;;;;;;;;;18.35;41.18;99835.22;4979441;28;20291;-47
2021/12/27 12:06:30;;;;;;;;;;;;;;;18.35;41.19;99845.13;4980850;28;19918;-48
2021/12/27 12:08:56;;;;;;;;;;;;;;;18.33;41.39;99848.00;4979917;28;19949;-44
2021/12/27 12:11:28;;;;;;;;;;;;;;;18.30;41.30;99845.69;4980926;28;19918;-49
2021/12/27 12:13:53;;;;;;;;;;;;;;;18.28;41.41;99841.53;4980313;28;19937;-48
2021/12/27 12:16:19;;;;;;;;;;;;;;;18.27;41.41;99838.03;4981129;28;19922;-44
2021/12/27 12:18:50;;;;;;;;;;;;;;;18.23;41.50;99826.81;4980313;28;19925;-41
2021/12/27 12:21:34;;;;;;;;;;;;;;;18.26;41.49;99820.19;4979042;28;19989;-49
2021/12/27 12:24:11;;;;;;;;;;;;;;;18.28;41.53;99825.41;4980992;28;19964;-44
2021/12/27 12:26:46;;;;;;;;;;;;;;;18.30;41.40;99816.09;4981478;28;19918;-45
2021/12/27 12:29:11;;;;;;;;;;;;;;;18.31;41.45;99816.91;4982961;28;19972;-45
2021/12/27 12:31:36;;;;;;;;;;;;;;;18.33;41.43;99818.41;4983126;28;19918;-49
2021/12/27 12:34:28;;;;;;;;;;;;;;;18.37;41.17;99816.16;4982006;28;19918;-48
2021/12/27 12:36:57;;;;;;;;;;;;;;;18.42;41.27;99806.50;4976000;28;19934;-48
2021/12/27 12:39:23;;;;;;;;;;;;;;;18.45;40.76;99802.59;4983224;28;19925;-51
2021/12/27 12:41:48;;;;;;;;;;;;;;;18.47;40.86;99790.59;4983387;28;19918;-48